Time;durP1;ratioP1;P1;durP2;ratioP2;P2;SDS_P1;SDS_P2;PMS_P1;PMS_P2;Temp;Humidity;BMP_temperature;BMP_pressure;BME280_temperature;BME280_humidity;BME280_pressure;Samples;Min_cycle;Max_cycle;Signal;HPM_P1;HPM_P2
2022/10/13 00:01:31;;;;;;;31.70;18.33;;;11.10;57.00;;;;;;7354404;19;20026;-71
2022/10/13 00:04:01;;;;;;;28.88;17.42;;;11.00;57.00;;;;;;7355550;19;20014;-71
2022/10/13 00:06:31;;;;;;;32.72;18.02;;;11.00;57.00;;;;;;7360433;19;20359;-70
2022/10/13 00:09:01;;;;;;;28.13;18.15;;;11.00;57.40;;;;;;7357551;19;20018;-70
2022/10/13 00:11:32;;;;;;;31.77;18.02;;;11.00;57.50;;;;;;7383061;19;20031;-70
2022/10/13 00:14:04;;;;;;;31.38;18.98;;;11.00;57.90;;;;;;7364917;19;20089;-70
2022/10/13 00:16:36;;;;;;;30.42;18.40;;;11.00;58.20;;;;;;7363458;19;20581;-70
2022/10/13 00:19:06;;;;;;;29.65;17.48;;;11.00;58.10;;;;;;7360188;19;20022;-71
2022/10/13 00:21:41;;;;;;;27.50;17.20;;;11.00;58.20;;;;;;7363069;19;20078;-71
2022/10/13 00:24:13;;;;;;;29.88;18.70;;;10.90;58.00;;;;;;7365781;19;20007;-71
2022/10/13 00:26:43;;;;;;;31.95;19.23;;;11.00;58.20;;;;;;7385129;19;20014;-71
2022/10/13 00:29:12;;;;;;;27.85;17.35;;;10.90;58.00;;;;;;7356579;19;20041;-71
2022/10/13 00:31:45;;;;;;;27.25;17.95;;;10.90;58.00;;;;;;7362137;19;20050;-71
2022/10/13 00:34:14;;;;;;;31.95;19.33;;;11.00;58.30;;;;;;7364901;19;20018;-70
2022/10/13 00:36:44;;;;;;;33.58;19.63;;;11.10;59.20;;;;;;7364038;19;20022;-70
2022/10/13 00:39:14;;;;;;;32.80;19.73;;;11.20;59.30;;;;;;7358697;19;20330;-70
2022/10/13 00:41:44;;;;;;;37.05;21.30;;;11.20;59.30;;;;;;7383142;19;20056;-70
2022/10/13 00:44:43;;;;;;;33.70;20.70;;;11.20;59.20;;;;;;7366397;19;20010;-70
2022/10/13 00:47:16;;;;;;;37.97;19.83;;;11.20;59.50;;;;;;7361273;19;20014;-70
2022/10/13 00:49:46;;;;;;;34.10;20.77;;;11.30;59.60;;;;;;7356697;19;21602;-70
2022/10/13 00:52:18;;;;;;;34.58;20.08;;;11.20;59.30;;;;;;7364695;19;20014;-70
2022/10/13 00:54:49;;;;;;;35.95;21.05;;;11.20;59.20;;;;;;7364398;19;20022;-70
2022/10/13 00:57:21;;;;;;;39.25;22.38;;;11.20;59.70;;;;;;7361982;19;20022;-70
2022/10/13 00:59:52;;;;;;;39.03;22.05;;;11.20;59.70;;;;;;7365862;19;20022;-70
2022/10/13 01:02:29;;;;;;;35.13;20.25;;;11.20;60.10;;;;;;7382968;19;20019;-70
2022/10/13 01:05:00;;;;;;;33.42;19.55;;;11.20;60.30;;;;;;7362505;19;20042;-70
2022/10/13 01:07:31;;;;;;;34.10;20.88;;;11.20;60.40;;;;;;7362844;19;20031;-70
2022/10/13 01:10:01;;;;;;;34.50;20.60;;;11.20;60.20;;;;;;7355158;19;20015;-70
2022/10/13 01:12:45;;;;;;;35.05;19.27;;;11.20;60.20;;;;;;7362247;19;20523;-71
2022/10/13 01:15:23;;;;;;;34.72;19.40;;;11.20;59.70;;;;;;7363126;19;20025;-71
2022/10/13 01:18:03;;;;;;;36.33;19.92;;;11.20;60.10;;;;;;7359501;19;20038;-71
2022/10/13 01:20:54;;;;;;;39.45;20.88;;;11.20;60.30;;;;;;7380678;19;20015;-71
2022/10/13 01:23:58;;;;;;;39.78;21.67;;;11.30;60.30;;;;;;7363103;19;20018;-71
2022/10/13 01:27:10;;;;;;;41.13;19.92;;;11.30;60.30;;;;;;7363309;19;20014;-71
2022/10/13 01:30:16;;;;;;;33.95;19.33;;;11.30;60.00;;;;;;7354407;19;20530;-69
2022/10/13 01:33:01;;;;;;;31.33;19.50;;;11.10;58.90;;;;;;7260874;19;2004411;-69
2022/10/13 01:35:34;;;;;;;;;;;11.00;58.70;;;;;;7387345;19;20467;-69
2022/10/13 01:38:09;;;;;;;30.73;18.80;;;10.90;57.90;;;;;;7359413;19;20320;-70
2022/10/13 01:40:44;;;;;;;29.00;18.80;;;11.00;58.30;;;;;;7356963;19;20015;-70
2022/10/13 01:43:20;;;;;;;38.53;19.27;;;10.90;58.30;;;;;;7364004;19;20007;-70
2022/10/13 01:45:56;;;;;;;33.47;18.25;;;10.90;58.10;;;;;;7362728;19;20014;-70
2022/10/13 01:48:30;;;;;;;30.45;18.35;;;10.80;57.80;;;;;;7360768;19;20021;-70
2022/10/13 01:51:02;;;;;;;29.35;18.10;;;10.90;57.50;;;;;;7357852;19;20035;-69
2022/10/13 01:53:32;;;;;;;27.92;18.05;;;10.90;57.60;;;;;;7383997;19;20010;-69
2022/10/13 01:56:02;;;;;;;28.90;18.10;;;11.00;57.30;;;;;;7362098;19;20034;-70
2022/10/13 01:58:35;;;;;;;28.40;17.98;;;11.00;56.70;;;;;;7359213;19;20015;-70
2022/10/13 02:01:27;;;;;;;31.73;18.20;;;11.00;56.30;;;;;;7357389;19;20014;-71
2022/10/13 02:04:11;;;;;;;30.77;19.73;;;11.10;56.20;;;;;;7363087;19;20107;-70
2022/10/13 02:06:47;;;;;;;34.22;20.17;;;11.20;57.20;;;;;;7362688;19;20011;-70
2022/10/13 02:09:24;;;;;;;32.25;19.40;;;11.30;57.50;;;;;;7359060;19;20024;-70
2022/10/13 02:12:00;;;;;;;39.03;22.00;;;11.30;58.00;;;;;;7359332;19;20010;-70
2022/10/13 02:14:33;;;;;;;35.25;20.85;;;11.30;58.50;;;;;;7384536;19;20034;-71
2022/10/13 02:17:06;;;;;;;36.00;22.97;;;11.40;58.80;;;;;;7361359;19;20120;-71
2022/10/13 02:19:40;;;;;;;36.80;21.65;;;11.40;59.10;;;;;;7355343;19;20025;-71
2022/10/13 02:22:13;;;;;;;34.05;20.65;;;11.50;59.20;;;;;;7361105;19;20014;-70
2022/10/13 02:24:43;;;;;;;41.17;21.13;;;11.50;58.80;;;;;;7363957;19;20020;-71
2022/10/13 02:27:13;;;;;;;34.08;20.95;;;11.60;58.80;;;;;;7360917;19;20014;-70
2022/10/13 02:29:54;;;;;;;33.90;20.67;;;11.60;58.00;;;;;;7372498;19;20022;-70
2022/10/13 02:32:24;;;;;;;33.50;20.45;;;11.70;57.50;;;;;;7361930;19;20014;-70
2022/10/13 02:34:57;;;;;;;35.35;20.35;;;11.70;56.90;;;;;;7361930;19;20404;-70
2022/10/13 02:37:26;;;;;;;32.97;20.45;;;11.70;55.80;;;;;;7360319;19;20457;-70
2022/10/13 02:39:56;;;;;;;37.15;20.33;;;11.70;55.50;;;;;;7353996;19;20007;-71
2022/10/13 02:42:26;;;;;;;33.38;19.77;;;11.70;55.00;;;;;;7361804;19;20006;-71
2022/10/13 02:44:56;;;;;;;36.97;21.23;;;11.70;55.00;;;;;;7361444;19;20038;-71
2022/10/13 02:47:26;;;;;;;33.72;19.27;;;11.70;55.10;;;;;;7381969;19;20601;-71
2022/10/13 02:49:58;;;;;;;35.08;20.45;;;11.80;55.10;;;;;;7352308;19;20774;-71
2022/10/13 02:52:28;;;;;;;33.55;19.95;;;11.80;54.60;;;;;;7359951;19;20006;-71
2022/10/13 02:54:57;;;;;;;33.45;19.88;;;11.80;54.80;;;;;;7361860;19;20108;-71
2022/10/13 02:57:27;;;;;;;32.55;19.90;;;11.80;54.00;;;;;;7360216;19;20033;-71
2022/10/13 02:59:57;;;;;;;34.28;19.23;;;11.70;54.10;;;;;;7352288;19;21286;-71
2022/10/13 03:02:28;;;;;;;36.67;19.88;;;11.80;55.00;;;;;;7382819;19;20010;-71
2022/10/13 03:05:01;;;;;;;32.75;19.85;;;11.80;55.10;;;;;;7361140;19;20099;-71
2022/10/13 03:07:30;;;;;;;34.65;19.20;;;11.80;55.10;;;;;;7359694;19;20006;-71
2022/10/13 03:10:00;;;;;;;37.55;20.85;;;11.80;55.00;;;;;;7352519;19;20010;-70
2022/10/13 03:12:30;;;;;;;32.38;19.20;;;11.80;55.00;;;;;;7360853;19;20613;-71
2022/10/13 03:15:00;;;;;;;34.53;20.63;;;11.70;55.00;;;;;;7360745;19;20254;-71
2022/10/13 03:17:30;;;;;;;39.03;23.15;;;11.70;55.00;;;;;;7380790;19;20030;-71
2022/10/13 03:20:02;;;;;;;37.25;21.92;;;11.70;55.00;;;;;;7352024;19;20018;-71
2022/10/13 03:22:33;;;;;;;40.80;22.98;;;11.70;55.10;;;;;;7358818;19;20771;-69
2022/10/13 03:25:03;;;;;;;41.55;21.85;;;11.70;55.60;;;;;;7361081;19;20018;-70
2022/10/13 03:27:33;;;;;;;42.60;21.27;;;11.70;55.40;;;;;;7359785;19;20378;-70
2022/10/13 03:30:03;;;;;;;41.60;21.35;;;11.70;55.50;;;;;;7350942;19;20018;-70
2022/10/13 03:32:33;;;;;;;39.80;23.30;;;11.70;55.50;;;;;;7381684;19;20006;-70
2022/10/13 03:35:06;;;;;;;43.08;22.25;;;11.70;55.80;;;;;;7360679;19;20017;-70
2022/10/13 03:37:36;;;;;;;40.25;22.30;;;11.70;55.80;;;;;;7359485;19;20014;-70
2022/10/13 03:40:07;;;;;;;34.75;21.45;;;11.70;55.10;;;;;;7352223;19;20015;-69
2022/10/13 03:42:38;;;;;;;35.97;22.27;;;11.70;55.00;;;;;;7367492;19;20021;-70
2022/10/13 03:45:09;;;;;;;40.28;22.13;;;11.60;55.20;;;;;;7367412;19;20351;-70
2022/10/13 03:47:39;;;;;;;39.05;22.30;;;11.70;55.80;;;;;;7387145;19;20014;-69
2022/10/13 03:50:12;;;;;;;37.38;21.27;;;11.60;55.40;;;;;;7357390;19;20017;-69
2022/10/13 03:52:42;;;;;;;43.72;22.48;;;11.60;56.00;;;;;;7366055;19;20011;-69
2022/10/13 03:55:12;;;;;;;37.78;21.27;;;11.60;56.10;;;;;;7368827;19;20014;-70
2022/10/13 03:57:41;;;;;;;35.03;21.42;;;11.60;56.50;;;;;;7365412;19;20030;-69
2022/10/13 04:00:13;;;;;;;39.03;22.35;;;11.60;56.90;;;;;;7358265;19;20027;-70
2022/10/13 04:02:43;;;;;;;34.47;20.40;;;11.60;57.30;;;;;;7389175;19;20374;-70
2022/10/13 04:05:16;;;;;;;35.78;21.50;;;11.70;57.40;;;;;;7367691;19;20021;-70
2022/10/13 04:07:45;;;;;;;40.90;22.02;;;11.70;57.80;;;;;;7364818;19;20038;-70
2022/10/13 04:10:15;;;;;;;37.95;21.92;;;11.80;57.10;;;;;;7358715;19;20011;-70
2022/10/13 04:12:45;;;;;;;44.88;22.92;;;11.80;57.00;;;;;;7367246;19;20481;-70
2022/10/13 04:15:15;;;;;;;43.53;22.23;;;11.80;57.00;;;;;;7367803;19;20032;-70
2022/10/13 04:17:45;;;;;;;39.65;22.67;;;11.80;57.00;;;;;;7387106;19;20014;-70
2022/10/13 04:20:17;;;;;;;40.97;23.98;;;11.90;57.00;;;;;;7358001;19;20010;-70
2022/10/13 04:22:47;;;;;;;37.30;23.23;;;11.90;56.70;;;;;;7366423;19;20006;-70
2022/10/13 04:25:17;;;;;;;41.70;23.23;;;11.90;56.50;;;;;;7367025;19;20022;-70
2022/10/13 04:27:47;;;;;;;39.92;21.42;;;11.90;56.00;;;;;;7363470;19;20018;-70
2022/10/13 04:30:17;;;;;;;40.30;23.23;;;11.90;55.80;;;;;;7358479;19;20050;-70
2022/10/13 04:32:47;;;;;;;37.70;21.85;;;11.90;55.20;;;;;;7388414;19;20018;-70
2022/10/13 04:35:19;;;;;;;37.75;21.35;;;11.90;55.20;;;;;;7366398;19;20367;-70
2022/10/13 04:37:49;;;;;;;36.10;20.98;;;11.90;55.00;;;;;;7364926;19;20011;-70
2022/10/13 04:40:19;;;;;;;37.67;20.85;;;11.80;54.20;;;;;;7359010;19;20422;-70
2022/10/13 04:42:49;;;;;;;40.33;21.20;;;11.90;53.80;;;;;;7364719;19;20037;-70
2022/10/13 04:45:19;;;;;;;37.05;22.15;;;11.80;53.80;;;;;;7365469;19;20052;-69
2022/10/13 04:47:49;;;;;;;36.53;20.52;;;11.80;53.70;;;;;;7384171;19;20021;-70
2022/10/13 04:50:22;;;;;;;38.50;22.58;;;11.80;53.50;;;;;;7357159;19;20475;-70
2022/10/13 04:52:51;;;;;;;34.75;20.88;;;11.80;53.50;;;;;;7363851;19;20470;-70
2022/10/13 04:55:21;;;;;;;34.97;21.48;;;11.70;53.30;;;;;;7365637;19;20006;-69
2022/10/13 04:57:51;;;;;;;35.63;21.00;;;11.70;53.50;;;;;;7360560;19;20048;-70
2022/10/13 05:00:21;;;;;;;38.35;21.90;;;11.70;53.60;;;;;;7359145;19;20006;-69
2022/10/13 05:02:51;;;;;;;36.45;22.17;;;11.70;53.60;;;;;;7383787;19;20014;-72
2022/10/13 05:05:23;;;;;;;36.95;22.63;;;11.60;53.70;;;;;;7387214;19;20061;-70
2022/10/13 05:07:53;;;;;;;36.45;22.58;;;11.50;54.00;;;;;;7362505;19;20450;-70
2022/10/13 05:10:23;;;;;;;39.97;21.25;;;11.50;54.70;;;;;;7356911;19;20006;-70
2022/10/13 05:12:54;;;;;;;36.35;22.00;;;11.50;54.80;;;;;;7363588;19;20029;-69
2022/10/13 05:15:24;;;;;;;33.53;21.25;;;11.50;54.90;;;;;;7365367;19;20738;-71
2022/10/13 05:17:54;;;;;;;35.05;21.30;;;11.50;54.80;;;;;;7361319;19;20042;-70
2022/10/13 05:20:26;;;;;;;32.40;20.25;;;11.50;54.80;;;;;;7378743;19;20014;-70
2022/10/13 05:22:56;;;;;;;42.10;21.05;;;11.50;54.90;;;;;;7363106;19;20011;-70
2022/10/13 05:25:26;;;;;;;32.17;19.67;;;11.50;54.80;;;;;;7363777;19;20493;-70
2022/10/13 05:28:02;;;;;;;33.95;19.77;;;11.50;54.60;;;;;;7359776;19;20010;-69
2022/10/13 05:30:32;;;;;;;37.10;21.25;;;11.60;54.80;;;;;;7357348;19;20011;-71
2022/10/13 05:33:02;;;;;;;36.38;20.67;;;11.60;54.50;;;;;;7363359;19;20019;-71
2022/10/13 05:35:34;;;;;;;32.38;19.23;;;11.60;54.30;;;;;;7385355;19;20022;-70
2022/10/13 05:38:04;;;;;;;35.58;19.45;;;11.60;54.00;;;;;;7360304;19;20010;-70
2022/10/13 05:40:34;;;;;;;31.05;18.70;;;11.70;53.40;;;;;;7355264;19;20717;-70
2022/10/13 05:43:04;;;;;;;33.78;18.98;;;11.80;52.10;;;;;;7362298;19;20017;-70
2022/10/13 05:45:34;;;;;;;30.70;19.27;;;11.80;51.20;;;;;;7364805;19;20509;-70
2022/10/13 05:48:04;;;;;;;31.15;18.13;;;11.80;50.80;;;;;;7359021;19;20018;-69
2022/10/13 05:50:37;;;;;;;27.13;18.08;;;11.90;49.90;;;;;;7376558;19;20039;-69
2022/10/13 05:53:07;;;;;;;37.67;19.73;;;11.80;49.50;;;;;;7361419;19;20458;-70
2022/10/13 05:55:36;;;;;;;27.75;19.20;;;11.90;49.40;;;;;;7362024;19;20018;-70
2022/10/13 05:58:06;;;;;;;27.45;18.58;;;11.90;48.70;;;;;;7357536;19;20347;-70
2022/10/13 06:00:36;;;;;;;29.25;17.98;;;11.90;48.00;;;;;;7354370;19;20014;-70
2022/10/13 06:03:12;;;;;;;33.58;18.17;;;12.00;47.60;;;;;;7361351;19;20035;-69
2022/10/13 06:05:46;;;;;;;26.73;17.58;;;12.00;47.20;;;;;;7384111;19;20014;-70
2022/10/13 06:08:16;;;;;;;29.55;17.65;;;11.90;47.20;;;;;;7360742;19;20010;-70
2022/10/13 06:10:47;;;;;;;29.95;17.63;;;12.00;47.20;;;;;;7355214;19;20014;-70
2022/10/13 06:13:16;;;;;;;28.60;17.45;;;12.00;47.20;;;;;;7362463;19;20011;-70
2022/10/13 06:15:46;;;;;;;27.95;17.65;;;12.00;47.20;;;;;;7363173;19;20007;-71
2022/10/13 06:18:16;;;;;;;28.20;17.58;;;11.90;47.10;;;;;;7360389;19;21002;-70
2022/10/13 06:20:48;;;;;;;27.98;17.70;;;12.00;47.20;;;;;;7375312;19;20474;-70
2022/10/13 06:23:18;;;;;;;27.40;17.13;;;12.00;47.10;;;;;;7359851;19;20025;-69
2022/10/13 06:25:52;;;;;;;27.48;16.52;;;12.10;46.80;;;;;;7360505;19;20018;-70
2022/10/13 06:28:22;;;;;;;25.27;15.98;;;12.10;46.20;;;;;;7357482;19;20394;-70
2022/10/13 06:30:55;;;;;;;26.98;17.08;;;12.00;45.80;;;;;;7354665;19;20580;-70
2022/10/13 06:33:26;;;;;;;28.35;16.45;;;12.00;45.70;;;;;;7360202;19;20593;-70
2022/10/13 06:36:02;;;;;;;30.08;16.65;;;12.10;45.70;;;;;;7359860;19;20821;-71
2022/10/13 06:38:31;;;;;;;28.05;15.88;;;12.20;45.90;;;;;;7377043;19;20729;-71
2022/10/13 06:41:02;;;;;;;25.08;16.23;;;12.20;45.50;;;;;;7351388;19;20490;-70
2022/10/13 06:43:32;;;;;;;25.42;16.10;;;12.30;44.70;;;;;;7360113;19;20030;-71
2022/10/13 06:46:09;;;;;;;27.42;16.45;;;12.30;44.40;;;;;;7358125;19;20456;-71
2022/10/13 06:48:39;;;;;;;31.00;17.00;;;12.30;45.00;;;;;;7356471;19;20011;-70
2022/10/13 06:51:14;;;;;;;26.77;15.80;;;12.40;44.80;;;;;;7353835;19;20524;-72
2022/10/13 06:53:44;;;;;;;27.30;17.35;;;12.40;44.30;;;;;;7381429;19;20018;-70
2022/10/13 06:56:13;;;;;;;26.65;16.77;;;12.50;43.50;;;;;;7358283;19;20078;-71
2022/10/13 06:58:43;;;;;;;30.67;16.38;;;12.50;42.90;;;;;;7356780;19;20053;-70
2022/10/13 07:01:14;;;;;;;29.00;17.45;;;12.60;42.80;;;;;;7354459;19;20026;-71
2022/10/13 07:03:44;;;;;;;31.35;16.75;;;12.70;42.40;;;;;;7359375;19;20470;-70
2022/10/13 07:06:16;;;;;;;27.67;16.17;;;12.70;40.40;;;;;;7360072;19;20010;-69
2022/10/13 07:08:46;;;;;;;28.58;16.27;;;12.70;41.40;;;;;;7377999;19;20601;-70
2022/10/13 07:11:17;;;;;;;26.27;15.95;;;12.80;40.80;;;;;;7353530;19;20143;-71
2022/10/13 07:13:47;;;;;;;30.17;17.13;;;12.80;41.30;;;;;;7358894;19;20062;-70
2022/10/13 07:16:17;;;;;;;30.42;16.83;;;12.70;39.50;;;;;;7359073;19;20022;-70
2022/10/13 07:18:48;;;;;;;30.17;16.75;;;12.90;39.80;;;;;;7356950;19;20021;-70
2022/10/13 07:21:21;;;;;;;25.75;16.02;;;13.00;37.90;;;;;;7353955;19;20034;-70
2022/10/13 07:23:51;;;;;;;31.95;18.05;;;12.90;38.30;;;;;;7373305;19;20025;-72
2022/10/13 07:26:21;;;;;;;33.22;17.67;;;12.90;36.60;;;;;;7379836;19;20015;-69
2022/10/13 07:28:51;;;;;;;25.52;16.10;;;13.00;37.40;;;;;;7355788;19;20018;-69
2022/10/13 07:31:22;;;;;;;27.33;16.45;;;13.00;35.60;;;;;;7354268;19;20325;-70
2022/10/13 07:33:52;;;;;;;26.75;16.30;;;13.00;35.40;;;;;;7355838;19;20011;-70
2022/10/13 07:36:26;;;;;;;29.55;15.93;;;13.00;35.40;;;;;;7359221;19;20426;-70
2022/10/13 07:38:57;;;;;;;24.27;15.50;;;13.00;35.40;;;;;;7356000;19;20018;-71
2022/10/13 07:41:27;;;;;;;25.77;15.27;;;13.10;35.60;;;;;;7372441;19;20355;-70
2022/10/13 07:43:57;;;;;;;23.55;16.45;;;13.30;34.10;;;;;;7357737;19;20010;-69
2022/10/13 07:46:27;;;;;;;30.27;17.75;;;13.50;33.80;;;;;;7358059;19;20040;-70
2022/10/13 07:48:58;;;;;;;29.55;18.65;;;13.70;29.90;;;;;;7356007;19;20090;-70
2022/10/13 07:51:30;;;;;;;27.67;16.45;;;13.70;29.10;;;;;;7352334;19;20018;-70
2022/10/13 07:54:00;;;;;;;25.02;16.05;;;13.90;25.90;;;;;;7354721;19;20501;-71
2022/10/13 07:56:30;;;;;;;25.88;15.40;;;13.90;27.60;;;;;;7377471;19;20818;-70
2022/10/13 07:59:00;;;;;;;27.35;14.85;;;14.10;26.10;;;;;;7356128;19;20014;-70
2022/10/13 08:01:30;;;;;;;23.48;14.60;;;14.10;25.70;;;;;;7350672;19;20579;-70
2022/10/13 08:03:59;;;;;;;23.00;13.75;;;14.00;25.20;;;;;;7356009;19;20447;-70
2022/10/13 08:06:32;;;;;;;27.52;15.60;;;14.10;25.40;;;;;;7357393;19;20038;-70
2022/10/13 08:09:03;;;;;;;22.67;14.18;;;14.20;23.40;;;;;;7354691;19;20043;-70
2022/10/13 08:11:33;;;;;;;26.95;15.10;;;14.10;23.50;;;;;;7369626;19;20015;-70
2022/10/13 08:14:02;;;;;;;26.08;14.55;;;14.30;24.50;;;;;;7350775;19;20066;-70
2022/10/13 08:16:33;;;;;;;26.95;15.48;;;14.10;23.80;;;;;;7353604;19;20015;-70
2022/10/13 08:19:03;;;;;;;25.90;15.35;;;14.20;24.50;;;;;;7352851;19;20082;-70
2022/10/13 08:21:37;;;;;;;25.58;15.77;;;14.30;24.00;;;;;;7348606;19;20022;-70
2022/10/13 08:24:28;;;;;;;21.88;14.93;;;14.40;21.80;;;;;;7352961;19;20067;-69
2022/10/13 08:26:58;;;;;;;21.02;14.88;;;14.50;22.80;;;;;;7357941;19;20025;-71
2022/10/13 08:29:28;;;;;;;22.90;14.35;;;14.60;21.50;;;;;;7381415;19;20021;-71
2022/10/13 08:31:58;;;;;;;23.75;14.00;;;14.60;20.50;;;;;;7359182;19;20101;-70
2022/10/13 08:34:28;;;;;;;22.05;14.23;;;14.80;18.40;;;;;;7363594;19;20022;-69
2022/10/13 08:37:00;;;;;;;20.25;12.90;;;14.90;18.40;;;;;;7364865;19;20006;-68
2022/10/13 08:39:31;;;;;;;23.48;14.27;;;15.10;17.50;;;;;;7362334;19;20025;-69
2022/10/13 08:42:02;;;;;;;23.65;13.50;;;15.30;15.20;;;;;;7362963;19;20481;-69
2022/10/13 08:44:39;;;;;;;23.48;13.57;;;15.30;13.50;;;;;;7385777;19;20014;-68
2022/10/13 08:47:39;;;;;;;24.30;14.15;;;15.50;12.30;;;;;;7362281;19;20018;-68
2022/10/13 08:50:15;;;;;;;28.55;13.23;;;15.50;11.60;;;;;;7353074;19;20014;-68
2022/10/13 08:52:51;;;;;;;28.08;12.35;;;15.60;11.60;;;;;;7354815;19;20022;-69
2022/10/13 08:55:31;;;;;;;18.17;12.07;;;15.80;10.60;;;;;;7353553;19;20011;-69
2022/10/13 08:58:03;;;;;;;17.80;11.73;;;15.70;9.90;;;;;;7348723;19;20014;-69
2022/10/13 09:00:33;;;;;;;22.30;11.73;;;15.90;9.60;;;;;;7346839;19;20482;-69
2022/10/13 09:03:27;;;;;;;27.85;12.80;;;16.10;8.20;;;;;;7349675;19;20025;-68
2022/10/13 09:06:05;;;;;;;20.10;11.40;;;16.20;7.50;;;;;;7351719;19;20018;-68
2022/10/13 09:08:42;;;;;;;19.85;11.38;;;16.20;6.70;;;;;;7370689;19;20018;-69
2022/10/13 09:11:14;;;;;;;19.65;11.43;;;16.30;6.80;;;;;;7344702;19;20030;-68
2022/10/13 09:13:44;;;;;;;19.95;10.30;;;16.30;5.00;;;;;;7351029;19;20060;-69
2022/10/13 09:16:14;;;;;;;15.93;11.18;;;16.30;5.60;;;;;;7350693;19;20042;-68
2022/10/13 09:18:43;;;;;;;19.88;11.00;;;16.40;4.70;;;;;;7350259;19;20014;-68
2022/10/13 09:21:20;;;;;;;16.88;9.43;;;16.30;3.70;;;;;;7347373;19;20046;-68
2022/10/13 09:23:55;;;;;;;19.95;9.15;;;16.30;2.50;;;;;;7374148;19;20057;-68
2022/10/13 09:26:26;;;;;;;20.95;10.23;;;16.60;3.50;;;;;;7350721;19;20128;-68
2022/10/13 09:28:56;;;;;;;14.10;8.55;;;16.70;1.70;;;;;;7348734;19;20022;-68
2022/10/13 09:31:31;;;;;;;15.88;8.63;;;16.40;1.00;;;;;;7345453;19;20014;-68
2022/10/13 09:34:02;;;;;;;;;;;16.40;1.00;;;;;;7352726;19;20022;-68
2022/10/13 09:36:32;;;;;;;20.02;9.30;;;16.70;1.00;;;;;;7350176;19;19938;-68
2022/10/13 09:39:15;;;;;;;16.60;9.90;;;16.70;1.00;;;;;;7350318;19;20022;-67
2022/10/13 09:41:46;;;;;;;17.98;8.57;;;16.80;1.00;;;;;;7369052;19;20015;-68
2022/10/13 09:44:19;;;;;;;11.70;7.85;;;16.60;1.00;;;;;;7350076;19;20066;-68
2022/10/13 09:46:58;;;;;;;14.15;9.23;;;16.80;1.00;;;;;;7348685;19;20102;-68
2022/10/13 09:49:38;;;;;;;15.52;8.45;;;16.60;1.00;;;;;;7349147;19;20025;-68
2022/10/13 09:52:17;;;;;;;13.95;9.05;;;16.50;1.00;;;;;;7351016;19;20390;-68
2022/10/13 09:54:52;;;;;;;13.43;8.52;;;16.60;1.00;;;;;;7350171;19;20704;-68
2022/10/13 09:57:35;;;;;;;16.75;7.88;;;16.60;1.00;;;;;;7350619;19;20479;-68
2022/10/13 10:00:15;;;;;;;14.45;8.05;;;16.90;1.00;;;;;;7343253;19;20022;-68
2022/10/13 10:02:50;;;;;;;18.05;8.35;;;16.70;1.00;;;;;;7373080;19;20062;-68
2022/10/13 10:05:26;;;;;;;16.02;9.15;;;16.80;1.00;;;;;;7351253;19;20036;-69
2022/10/13 10:08:01;;;;;;;23.33;9.70;;;16.70;1.00;;;;;;7347872;19;20050;-68
2022/10/13 10:10:36;;;;;;;19.38;8.90;;;16.60;1.00;;;;;;7345202;19;20018;-68
2022/10/13 10:13:06;;;;;;;13.73;9.00;;;16.50;1.10;;;;;;7352435;19;20082;-68
2022/10/13 10:15:46;;;;;;;16.15;9.23;;;16.40;1.00;;;;;;7350468;19;20024;-69
2022/10/13 10:18:21;;;;;;;17.95;9.02;;;16.50;1.90;;;;;;7346587;19;20355;-69
2022/10/13 10:21:09;;;;;;;15.80;9.32;;;16.40;1.70;;;;;;7361271;19;20456;-69
2022/10/13 10:23:47;;;;;;;15.05;9.07;;;16.40;1.30;;;;;;7370698;19;20494;-69
2022/10/13 10:26:25;;;;;;;15.57;8.60;;;16.60;1.80;;;;;;7350107;19;20010;-69
2022/10/13 10:29:16;;;;;;;17.88;8.93;;;16.40;1.00;;;;;;7354372;19;20022;-69
2022/10/13 10:32:01;;;;;;;14.98;9.00;;;16.40;1.00;;;;;;7354250;19;20014;-68
2022/10/13 10:34:38;;;;;;;17.42;8.25;;;16.50;1.00;;;;;;7354213;19;20478;-68
2022/10/13 10:37:21;;;;;;;15.50;8.65;;;16.40;1.60;;;;;;7353935;19;20018;-69
2022/10/13 10:40:03;;;;;;;13.98;8.48;;;16.40;2.30;;;;;;7353847;19;20090;-71
2022/10/13 10:43:05;;;;;;;18.17;9.13;;;16.50;1.60;;;;;;7354731;19;20739;-71
2022/10/13 10:45:39;;;;;;;14.27;8.35;;;16.60;1.00;;;;;;7354081;19;20041;-69
2022/10/13 10:48:19;;;;;;;14.63;7.85;;;16.50;1.00;;;;;;7349951;19;20699;-69
2022/10/13 10:50:51;;;;;;;12.98;7.93;;;16.60;1.50;;;;;;7373480;19;20018;-70
2022/10/13 10:53:30;;;;;;;14.88;8.07;;;16.60;1.00;;;;;;7355536;19;20011;-68
2022/10/13 10:56:05;;;;;;;14.15;7.93;;;16.80;1.00;;;;;;7353259;19;20018;-69
2022/10/13 10:58:45;;;;;;;14.52;7.85;;;16.70;1.00;;;;;;7353881;19;20337;-68
2022/10/13 11:01:29;;;;;;;18.08;8.52;;;16.70;1.00;;;;;;7353981;19;20030;-70
2022/10/13 11:04:14;;;;;;;15.40;7.63;;;16.90;2.10;;;;;;7352966;19;20334;-68
2022/10/13 11:06:44;;;;;;;15.35;7.65;;;17.00;1.00;;;;;;7351501;19;20014;-69
2022/10/13 11:09:14;;;;;;;14.13;7.18;;;17.10;1.00;;;;;;7352887;19;20018;-69
2022/10/13 11:11:44;;;;;;;14.75;7.15;;;16.90;1.00;;;;;;7375698;19;20489;-69
2022/10/13 11:14:30;;;;;;;10.43;6.30;;;16.90;1.00;;;;;;7351886;19;20006;-69
2022/10/13 11:17:10;;;;;;;13.05;6.25;;;16.90;1.00;;;;;;7350588;19;20557;-69
2022/10/13 11:19:41;;;;;;;12.30;7.20;;;17.10;1.00;;;;;;7345205;19;20022;-69
2022/10/13 11:22:16;;;;;;;9.00;6.45;;;17.10;1.00;;;;;;7353493;19;20018;-69
2022/10/13 11:24:59;;;;;;;13.85;6.65;;;17.50;1.00;;;;;;7354896;19;20489;-68
2022/10/13 11:27:44;;;;;;;15.15;7.65;;;17.40;1.00;;;;;;7349475;19;20018;-68
2022/10/13 11:30:46;;;;;;;13.88;6.80;;;17.20;1.00;;;;;;7348955;19;20035;-67
2022/10/13 11:33:35;;;;;;;12.90;6.38;;;17.40;1.00;;;;;;7350601;19;20014;-67
2022/10/13 11:36:35;;;;;;;10.93;6.57;;;17.20;1.00;;;;;;7350994;19;20014;-68
2022/10/13 11:39:29;;;;;;;13.10;6.68;;;17.30;1.00;;;;;;7350657;19;20326;-68
2022/10/13 11:42:11;;;;;;;11.00;6.43;;;17.30;1.00;;;;;;7351491;19;20023;-68
2022/10/13 11:44:51;;;;;;;12.57;6.60;;;17.30;1.00;;;;;;7374967;19;20039;-68
2022/10/13 11:47:52;;;;;;;13.77;7.15;;;16.80;1.00;;;;;;7348881;19;20018;-69
2022/10/13 11:50:30;;;;;;;12.95;6.28;;;17.10;1.00;;;;;;7352454;19;20529;-69
2022/10/13 11:53:17;;;;;;;10.50;6.60;;;17.10;1.00;;;;;;7352830;19;20518;-68
2022/10/13 11:55:52;;;;;;;17.10;6.60;;;17.50;1.00;;;;;;7349057;19;20019;-68
2022/10/13 11:58:24;;;;;;;13.68;6.75;;;17.50;1.00;;;;;;7352086;19;20070;-69
2022/10/13 12:00:56;;;;;;;9.95;5.85;;;17.50;1.00;;;;;;7348657;19;20017;-67
2022/10/13 12:03:32;;;;;;;10.18;6.28;;;17.60;1.00;;;;;;7357487;19;20049;-68
2022/10/13 12:06:06;;;;;;;14.35;6.53;;;17.70;1.00;;;;;;7359717;19;20050;-70
2022/10/13 12:08:37;;;;;;;;;;;17.70;1.00;;;;;;7382095;19;20019;-69
2022/10/13 12:11:09;;;;;;;12.90;6.40;;;17.60;1.00;;;;;;7359837;19;19919;-69
2022/10/13 12:13:39;;;;;;;10.05;6.47;;;17.50;1.00;;;;;;7356159;19;20634;-69
2022/10/13 12:16:09;;;;;;;12.48;6.90;;;17.30;1.00;;;;;;7355561;19;20010;-69
2022/10/13 12:18:42;;;;;;;13.60;6.53;;;17.20;1.00;;;;;;7356725;19;20311;-68
2022/10/13 12:21:16;;;;;;;12.00;6.93;;;16.90;1.00;;;;;;7358476;19;20355;-69
2022/10/13 12:23:46;;;;;;;17.83;7.20;;;17.30;1.00;;;;;;7381156;19;20018;-69
2022/10/13 12:26:18;;;;;;;9.55;6.32;;;17.50;1.00;;;;;;7358117;19;20538;-68
2022/10/13 12:28:54;;;;;;;13.50;6.30;;;17.80;1.00;;;;;;7358291;19;20078;-69
2022/10/13 12:31:27;;;;;;;11.98;6.80;;;17.90;1.00;;;;;;7357251;19;20006;-69
2022/10/13 12:34:01;;;;;;;13.30;6.55;;;18.10;1.00;;;;;;7358694;19;20007;-68
2022/10/13 12:36:33;;;;;;;9.50;5.85;;;17.90;1.00;;;;;;7355914;19;20050;-70
2022/10/13 12:39:06;;;;;;;11.15;6.40;;;17.80;1.00;;;;;;7358661;19;20015;-69
2022/10/13 12:41:37;;;;;;;11.55;6.28;;;17.70;1.00;;;;;;7380004;19;20022;-69
2022/10/13 12:44:09;;;;;;;11.27;6.13;;;17.90;1.00;;;;;;7358673;19;20014;-69
2022/10/13 12:46:40;;;;;;;11.10;6.35;;;18.10;1.00;;;;;;7355434;19;20038;-69
2022/10/13 12:49:18;;;;;;;13.02;6.88;;;17.70;1.00;;;;;;7358787;19;20454;-69
2022/10/13 12:52:13;;;;;;;15.27;6.72;;;18.00;1.00;;;;;;7358443;19;20024;-69
2022/10/13 12:54:50;;;;;;;11.30;6.78;;;18.10;1.00;;;;;;7358139;19;20015;-69
2022/10/13 12:57:23;;;;;;;14.57;7.20;;;18.00;1.00;;;;;;7356088;19;20014;-68
2022/10/13 12:59:55;;;;;;;14.00;6.93;;;17.70;1.00;;;;;;7352359;19;20021;-68
2022/10/13 13:02:27;;;;;;;13.77;6.47;;;18.00;1.00;;;;;;7377033;19;20014;-69
2022/10/13 13:05:00;;;;;;;9.50;6.05;;;18.10;1.00;;;;;;7353612;19;20040;-69
2022/10/13 13:07:32;;;;;;;11.50;5.68;;;17.90;1.00;;;;;;7348473;19;20498;-69